createdAt,value
2022-12-01T00:01:24.531Z,33.38
2022-12-01T00:03:27.729Z,29.65
2022-12-01T00:05:30.363Z,37.55
2022-12-01T00:07:33.088Z,33.67
2022-12-01T00:09:52.365Z,32.50
2022-12-01T00:11:54.991Z,30.95
2022-12-01T00:13:57.633Z,30.40
2022-12-01T00:16:10.448Z,29.50
2022-12-01T00:18:13.162Z,29.30
2022-12-01T00:20:16.803Z,32.80
2022-12-01T00:22:19.406Z,29.33
2022-12-01T00:24:23.479Z,32.25
2022-12-01T00:26:27.212Z,29.05
2022-12-01T00:28:29.777Z,33.47
2022-12-01T00:30:32.388Z,33.03
2022-12-01T00:32:36.332Z,39.42
2022-12-01T00:34:39.065Z,34.92
2022-12-01T00:36:41.665Z,35.95
2022-12-01T00:38:44.388Z,34.80
2022-12-01T00:40:46.963Z,34.17
2022-12-01T00:42:49.625Z,35.20
2022-12-01T00:44:52.357Z,33.95
2022-12-01T00:46:54.960Z,34.50
2022-12-01T00:48:58.984Z,36.50
2022-12-01T00:51:01.603Z,33.83
2022-12-01T00:53:04.320Z,35.33
2022-12-01T00:55:07.637Z,32.70
2022-12-01T00:57:10.751Z,35.72
2022-12-01T00:59:13.859Z,36.28
2022-12-01T01:01:16.540Z,37.40
2022-12-01T01:03:19.127Z,35.40
2022-12-01T01:05:23.293Z,38.13
2022-12-01T01:07:26.036Z,38.88
2022-12-01T01:09:28.764Z,35.72
2022-12-01T01:11:31.360Z,38.25
2022-12-01T01:13:34.592Z,38.88
2022-12-01T01:15:37.532Z,36.40
2022-12-01T01:17:40.170Z,38.08
2022-12-01T01:19:42.846Z,43.60
2022-12-01T01:21:46.795Z,41.25
2022-12-01T01:23:49.916Z,36.45
2022-12-01T01:25:52.576Z,36.22
2022-12-01T01:27:55.278Z,36.22
2022-12-01T01:29:57.990Z,37.80
2022-12-01T01:32:00.636Z,38.53
2022-12-01T01:34:03.812Z,35.22
2022-12-01T01:36:07.439Z,37.97
2022-12-01T01:38:11.653Z,37.42
2022-12-01T01:40:14.241Z,36.78
2022-12-01T01:42:20.696Z,40.83
2022-12-01T01:44:50.186Z,36.83
2022-12-01T01:46:52.827Z,41.03
2022-12-01T01:49:00.419Z,36.65
2022-12-01T01:51:03.725Z,35.88
2022-12-01T01:53:13.298Z,40.17
2022-12-01T01:55:16.934Z,38.92
2022-12-01T01:57:24.966Z,40.97
2022-12-01T01:59:30.834Z,38.35
2022-12-01T02:01:33.574Z,37.90
2022-12-01T02:03:39.123Z,35.05
2022-12-01T02:05:44.803Z,36.47
2022-12-01T02:07:48.928Z,33.67
2022-12-01T02:09:54.592Z,33.92
2022-12-01T02:12:11.301Z,37.63
2022-12-01T02:14:28.139Z,35.28
2022-12-01T02:16:39.455Z,35.58
2022-12-01T02:18:52.474Z,34.95
2022-12-01T02:21:20.826Z,35.05
2022-12-01T02:23:42.523Z,31.88
2022-12-01T02:25:51.752Z,34.92
2022-12-01T02:28:25.685Z,36.47
2022-12-01T02:30:39.987Z,39.45
2022-12-01T02:32:56.409Z,35.08
2022-12-01T02:35:03.358Z,39.22
2022-12-01T02:37:10.657Z,39.45
2022-12-01T02:39:22.943Z,39.47
2022-12-01T02:41:29.529Z,38.72
2022-12-01T02:43:37.301Z,43.17
2022-12-01T02:45:47.283Z,39.00
2022-12-01T02:47:54.352Z,40.45
2022-12-01T02:49:59.630Z,41.13
2022-12-01T02:52:06.333Z,40.95
2022-12-01T02:54:09.778Z,43.90
2022-12-01T02:56:15.909Z,39.97
2022-12-01T02:58:18.502Z,44.08
2022-12-01T03:00:21.250Z,41.58
2022-12-01T03:02:42.344Z,44.45
2022-12-01T03:04:57.449Z,40.90
2022-12-01T03:07:09.275Z,41.47
2022-12-01T03:11:29.803Z,41.13
2022-12-01T03:13:42.424Z,46.72
2022-12-01T03:15:50.832Z,41.50
2022-12-01T03:18:00.533Z,42.97
2022-12-01T03:20:09.104Z,39.67
2022-12-01T03:22:14.913Z,45.13
2022-12-01T03:24:22.459Z,42.85
2022-12-01T03:26:30.282Z,43.47
2022-12-01T03:28:37.688Z,43.58
2022-12-01T03:30:42.976Z,44.95
2022-12-01T03:32:49.548Z,42.53
2022-12-01T03:34:58.435Z,51.13
2022-12-01T03:37:05.893Z,41.10
2022-12-01T03:39:14.845Z,41.60
2022-12-01T03:41:21.011Z,43.00
2022-12-01T03:43:28.825Z,43.05
2022-12-01T03:45:37.366Z,41.50
2022-12-01T03:47:40.514Z,42.78
2022-12-01T03:49:44.058Z,41.58
2022-12-01T03:51:56.176Z,40.28
2022-12-01T03:54:13.059Z,40.75
2022-12-01T03:56:21.313Z,39.35
2022-12-01T03:58:28.965Z,42.67
2022-12-01T04:00:32.294Z,46.00
2022-12-01T04:02:37.214Z,40.70
2022-12-01T04:04:39.901Z,41.75
2022-12-01T04:06:47.214Z,41.60
2022-12-01T04:08:51.127Z,42.25
2022-12-01T04:10:53.735Z,43.10
2022-12-01T04:12:59.593Z,45.65
2022-12-01T04:15:04.914Z,44.33
2022-12-01T04:17:07.529Z,43.55
2022-12-01T04:19:10.132Z,42.08
2022-12-01T04:21:12.715Z,42.22
2022-12-01T04:23:35.751Z,38.97
2022-12-01T04:25:39.698Z,40.78
2022-12-01T04:27:42.314Z,44.83
2022-12-01T04:29:44.924Z,42.85
2022-12-01T04:31:47.553Z,42.75
2022-12-01T04:33:50.152Z,40.33
2022-12-01T04:35:59.951Z,38.00
2022-12-01T04:38:02.536Z,44.53
2022-12-01T04:40:06.796Z,48.90
2022-12-01T04:42:11.432Z,46.35
2022-12-01T04:44:14.524Z,42.47
2022-12-01T04:46:17.128Z,42.60
2022-12-01T04:48:19.752Z,42.42
2022-12-01T04:50:22.961Z,37.65
2022-12-01T04:52:27.503Z,45.50
2022-12-01T04:54:33.328Z,43.72
2022-12-01T04:56:35.923Z,43.95
2022-12-01T04:58:39.940Z,41.58
2022-12-01T05:00:42.566Z,43.03
2022-12-01T05:02:46.075Z,40.72
2022-12-01T05:04:48.986Z,41.38
2022-12-01T05:06:51.567Z,38.97
2022-12-01T05:08:56.472Z,42.80
2022-12-01T05:10:59.249Z,41.63
2022-12-01T05:13:02.435Z,43.85
2022-12-01T05:15:07.735Z,45.47
2022-12-01T05:17:10.331Z,43.33
2022-12-01T05:19:30.580Z,44.58
2022-12-01T05:21:33.161Z,47.55
2022-12-01T05:23:37.444Z,41.05
2022-12-01T05:25:40.054Z,45.15
2022-12-01T05:27:42.672Z,42.67
2022-12-01T05:29:45.261Z,40.03
2022-12-01T05:31:49.293Z,43.53
2022-12-01T05:33:52.014Z,42.80
2022-12-01T05:35:55.377Z,45.50
2022-12-01T05:37:57.979Z,47.17
2022-12-01T05:40:00.570Z,46.92
2022-12-01T05:42:03.193Z,42.20
2022-12-01T05:44:06.159Z,43.10
2022-12-01T05:46:09.565Z,46.10
2022-12-01T05:48:13.588Z,46.10
2022-12-01T05:50:17.192Z,45.58
2022-12-01T05:52:19.812Z,44.55
2022-12-01T05:54:22.417Z,49.17
2022-12-01T05:56:25.026Z,46.55
2022-12-01T05:58:27.623Z,42.35
2022-12-01T06:00:30.302Z,46.95
2022-12-01T06:02:32.986Z,43.55
2022-12-01T06:04:36.973Z,44.90
2022-12-01T06:06:39.590Z,44.13
2022-12-01T06:08:42.194Z,44.70
2022-12-01T06:10:45.536Z,43.63
2022-12-01T06:12:48.182Z,41.10
2022-12-01T06:14:50.777Z,43.60
2022-12-01T06:16:53.426Z,42.67
2022-12-01T06:18:56.039Z,45.15
2022-12-01T06:21:00.014Z,45.95
2022-12-01T06:23:02.590Z,41.40
2022-12-01T06:25:05.787Z,48.47
2022-12-01T06:27:08.415Z,48.58
2022-12-01T06:29:11.346Z,46.20
2022-12-01T06:31:14.408Z,41.72
2022-12-01T06:33:16.998Z,45.55
2022-12-01T06:35:19.635Z,43.45
2022-12-01T06:37:23.673Z,46.55
2022-12-01T06:39:26.311Z,48.63
2022-12-01T06:41:28.911Z,43.13
2022-12-01T06:43:31.485Z,40.75
2022-12-01T06:45:34.183Z,46.67
2022-12-01T06:47:36.931Z,42.15
2022-12-01T06:49:39.543Z,50.05
2022-12-01T06:51:42.122Z,48.15
2022-12-01T06:53:46.083Z,45.45
2022-12-01T06:55:48.823Z,50.33
2022-12-01T06:57:51.559Z,50.83
2022-12-01T06:59:54.434Z,47.22
2022-12-01T07:01:58.697Z,45.15
2022-12-01T07:04:01.525Z,47.80
2022-12-01T07:06:05.003Z,45.92
2022-12-01T07:08:07.784Z,48.80
2022-12-01T07:10:13.357Z,45.22
2022-12-01T07:12:16.035Z,44.95
2022-12-01T07:14:23.169Z,43.92
2022-12-01T07:16:26.102Z,47.65
2022-12-01T07:18:28.722Z,52.90
2022-12-01T07:20:31.343Z,47.10
2022-12-01T07:22:33.929Z,46.83
2022-12-01T07:24:36.590Z,49.22
2022-12-01T07:26:41.394Z,48.70
2022-12-01T07:28:45.289Z,50.53
2022-12-01T07:30:47.955Z,51.13
2022-12-01T07:32:50.662Z,52.45
2022-12-01T07:34:53.576Z,48.78
2022-12-01T07:36:56.165Z,45.67
2022-12-01T07:38:58.785Z,53.35
2022-12-01T07:41:05.995Z,49.33
2022-12-01T07:43:09.923Z,46.47
2022-12-01T07:45:12.553Z,47.58
2022-12-01T07:47:15.588Z,48.88
2022-12-01T07:49:18.180Z,47.80
2022-12-01T07:51:21.596Z,46.55
2022-12-01T07:53:25.106Z,50.58
2022-12-01T07:55:27.698Z,46.35
2022-12-01T07:57:30.311Z,52.35
2022-12-01T07:59:34.276Z,47.05
2022-12-01T08:01:41.544Z,52.88
2022-12-01T08:03:47.006Z,46.95
2022-12-01T08:05:57.056Z,45.45
2022-12-01T08:07:59.683Z,46.65
2022-12-01T08:10:02.481Z,53.20
2022-12-01T08:12:05.458Z,47.47
2022-12-01T08:14:08.075Z,53.00
2022-12-01T08:16:14.007Z,48.22
2022-12-01T08:18:16.695Z,46.15
2022-12-01T08:20:24.036Z,47.95
2022-12-01T08:22:26.825Z,42.88
2022-12-01T08:24:29.419Z,49.03
2022-12-01T08:26:32.346Z,50.83
2022-12-01T08:28:36.586Z,47.63
2022-12-01T08:30:39.299Z,49.92
2022-12-01T08:32:43.269Z,51.15
2022-12-01T08:34:51.845Z,44.65
2022-12-01T08:36:55.853Z,49.08
2022-12-01T08:38:58.519Z,46.63
2022-12-01T08:41:02.251Z,48.28
2022-12-01T08:43:05.936Z,45.55
2022-12-01T08:45:09.634Z,47.63
2022-12-01T08:47:17.274Z,45.45
2022-12-01T08:49:22.996Z,45.58
2022-12-01T08:51:26.034Z,50.78
2022-12-01T08:53:28.634Z,53.20
2022-12-01T08:55:31.266Z,51.17
2022-12-01T08:57:33.912Z,52.58
2022-12-01T08:59:36.562Z,50.10
2022-12-01T09:01:51.990Z,48.55
2022-12-01T09:04:05.713Z,48.78
2022-12-01T09:06:13.627Z,48.50
2022-12-01T09:08:35.154Z,48.60
2022-12-01T09:10:37.764Z,51.20
2022-12-01T09:12:40.416Z,49.67
2022-12-01T09:14:48.006Z,51.08
2022-12-01T09:16:51.686Z,48.65
2022-12-01T09:18:54.360Z,46.20
2022-12-01T09:21:00.140Z,50.70
2022-12-01T09:23:04.087Z,53.67
2022-12-01T09:25:14.569Z,59.70
2022-12-01T09:27:17.178Z,54.28
2022-12-01T09:29:19.980Z,51.97
2022-12-01T09:31:24.121Z,51.83
2022-12-01T09:33:26.793Z,53.95
2022-12-01T09:35:32.103Z,50.25
2022-12-01T09:37:34.682Z,50.97
2022-12-01T09:39:38.654Z,51.60
2022-12-01T09:41:45.771Z,51.22
2022-12-01T09:43:53.530Z,53.30
2022-12-01T09:46:04.016Z,55.20
2022-12-01T09:48:08.868Z,52.30
2022-12-01T09:50:15.306Z,56.47
2022-12-01T09:52:20.212Z,52.95
2022-12-01T09:54:22.927Z,58.58
2022-12-01T09:56:29.302Z,52.78
2022-12-01T09:58:32.587Z,53.10
2022-12-01T10:00:39.157Z,56.33
2022-12-01T10:02:45.267Z,55.08
2022-12-01T10:04:51.903Z,55.08
2022-12-01T10:07:00.095Z,61.55
2022-12-01T10:09:17.607Z,56.38
2022-12-01T10:11:32.044Z,56.80
2022-12-01T10:13:35.226Z,56.17
2022-12-01T10:15:44.704Z,53.60
2022-12-01T10:17:59.549Z,52.40
2022-12-01T10:20:10.156Z,56.30
2022-12-01T10:22:50.652Z,54.45
2022-12-01T10:24:57.056Z,57.83
2022-12-01T10:27:14.917Z,56.65
2022-12-01T10:29:28.074Z,53.22
2022-12-01T10:31:37.615Z,56.92
2022-12-01T10:33:47.486Z,57.05
2022-12-01T10:35:50.684Z,53.13
2022-12-01T10:37:57.232Z,51.08
2022-12-01T10:40:00.226Z,60.67
2022-12-01T10:42:08.530Z,53.35
2022-12-01T10:44:11.287Z,52.90
2022-12-01T10:46:24.442Z,54.92
2022-12-01T10:48:27.173Z,48.70
2022-12-01T10:50:29.800Z,59.25
2022-12-01T10:52:35.549Z,61.38
2022-12-01T10:54:40.563Z,51.88
2022-12-01T10:56:47.553Z,52.05
2022-12-01T10:58:54.400Z,59.75
2022-12-01T11:01:00.682Z,51.38
2022-12-01T11:03:22.025Z,52.72
2022-12-01T11:05:27.668Z,54.85
2022-12-01T11:07:33.335Z,60.22
2022-12-01T11:09:36.015Z,49.75
2022-12-01T11:11:41.251Z,57.63
2022-12-01T11:13:43.867Z,51.00
2022-12-01T11:15:54.379Z,54.95
2022-12-01T11:18:01.673Z,54.83
2022-12-01T11:20:27.742Z,58.90
2022-12-01T11:22:32.154Z,53.50
2022-12-01T11:24:43.189Z,58.15
2022-12-01T11:26:45.856Z,58.30
2022-12-01T11:28:58.505Z,58.63
2022-12-01T11:31:05.051Z,55.90
2022-12-01T11:33:07.808Z,53.88
2022-12-01T11:35:19.516Z,59.05
2022-12-01T11:37:24.642Z,55.33
2022-12-01T11:39:31.855Z,52.35
2022-12-01T11:41:38.994Z,60.85
2022-12-01T11:43:46.560Z,51.17
2022-12-01T11:45:54.628Z,57.25
2022-12-01T11:48:07.579Z,50.45
2022-12-01T11:50:25.316Z,54.17
2022-12-01T11:52:31.744Z,49.90
2022-12-01T11:54:34.667Z,55.60
2022-12-01T11:56:37.333Z,54.72
2022-12-01T11:58:40.138Z,54.58
2022-12-01T12:00:51.199Z,55.05
2022-12-01T12:03:19.736Z,55.97
2022-12-01T12:05:50.111Z,50.15
2022-12-01T12:08:05.788Z,52.72
2022-12-01T12:10:25.622Z,63.70
2022-12-01T12:12:44.671Z,55.97
2022-12-01T12:14:57.243Z,53.80
2022-12-01T12:17:19.144Z,54.90
2022-12-01T12:20:06.218Z,50.97
2022-12-01T12:22:16.486Z,53.13
2022-12-01T12:24:31.967Z,57.00
2022-12-01T12:26:41.453Z,55.30
2022-12-01T12:28:57.141Z,47.60
2022-12-01T12:31:11.314Z,47.15
2022-12-01T12:33:47.912Z,51.83
2022-12-01T12:36:02.860Z,51.85
2022-12-01T12:38:37.708Z,50.78
2022-12-01T12:40:43.876Z,49.47
2022-12-01T12:42:59.986Z,54.90
2022-12-01T12:45:11.994Z,49.20
2022-12-01T12:47:26.434Z,57.78
2022-12-01T12:49:39.237Z,48.10
2022-12-01T12:51:48.502Z,51.72
2022-12-01T12:53:55.484Z,51.58
2022-12-01T12:56:02.117Z,48.83
2022-12-01T12:58:11.918Z,50.35
2022-12-01T13:00:17.622Z,49.08
2022-12-01T13:02:26.873Z,49.55
2022-12-01T13:04:39.950Z,51.20
2022-12-01T13:06:51.731Z,47.00
2022-12-01T13:08:59.739Z,52.22
2022-12-01T13:11:07.949Z,45.78
2022-12-01T13:13:24.210Z,50.67
2022-12-01T13:15:28.393Z,48.38
2022-12-01T13:17:36.850Z,50.83
2022-12-01T13:19:41.971Z,48.15
2022-12-01T13:21:49.401Z,50.65
2022-12-01T13:23:53.321Z,49.35
2022-12-01T13:26:00.134Z,55.40
2022-12-01T13:28:06.485Z,47.72
2022-12-01T13:30:18.938Z,49.60
2022-12-01T13:32:32.579Z,51.58
2022-12-01T13:34:40.620Z,46.40
2022-12-01T13:36:52.139Z,49.22
2022-12-01T13:41:21.746Z,47.67
2022-12-01T13:43:24.504Z,49.83
2022-12-01T13:45:32.756Z,47.65
2022-12-01T13:47:40.671Z,48.50
2022-12-01T13:49:45.001Z,49.65
2022-12-01T13:52:25.821Z,47.30
2022-12-01T13:54:31.272Z,48.55
2022-12-01T13:56:47.219Z,49.63
2022-12-01T13:58:51.862Z,48.17
2022-12-01T14:00:54.566Z,49.92
2022-12-01T14:03:42.929Z,45.00
2022-12-01T14:05:46.535Z,47.15
2022-12-01T14:07:51.475Z,49.15
2022-12-01T14:10:00.149Z,47.20
2022-12-01T14:12:05.354Z,49.97
2022-12-01T14:14:24.256Z,46.72
2022-12-01T14:16:47.985Z,46.10
2022-12-01T14:20:54.609Z,49.85
2022-12-01T14:23:10.005Z,54.50
2022-12-01T14:25:26.879Z,48.58
2022-12-01T14:27:38.769Z,45.85
2022-12-01T14:32:25.459Z,50.78
2022-12-01T14:34:31.377Z,49.88
2022-12-01T14:36:40.696Z,45.63
2022-12-01T14:38:43.762Z,49.30
2022-12-01T14:40:48.509Z,46.58
2022-12-01T14:43:13.207Z,46.22
2022-12-01T14:45:21.432Z,41.90
2022-12-01T14:47:26.665Z,43.70
2022-12-01T14:49:33.388Z,45.40
2022-12-01T14:51:38.380Z,46.88
2022-12-01T14:53:45.820Z,51.45
2022-12-01T14:55:53.914Z,50.28
2022-12-01T14:58:06.205Z,52.40
2022-12-01T15:00:14.135Z,50.50
2022-12-01T15:02:16.854Z,48.35
2022-12-01T15:04:20.324Z,47.63
2022-12-01T15:06:24.785Z,42.10
2022-12-01T15:08:58.387Z,42.13
2022-12-01T15:10:56.180Z,45.00
2022-12-01T15:12:58.756Z,47.15
2022-12-01T15:15:01.471Z,51.00
2022-12-01T15:17:05.629Z,47.90
2022-12-01T15:19:23.606Z,46.25
2022-12-01T15:21:28.258Z,46.40
2022-12-01T15:23:30.863Z,47.22
2022-12-01T15:25:37.034Z,48.45
2022-12-01T15:27:41.088Z,46.35
2022-12-01T15:29:46.777Z,43.33
2022-12-01T15:31:53.500Z,44.75
2022-12-01T15:33:57.454Z,46.55
2022-12-01T15:36:02.044Z,45.75
2022-12-01T15:38:05.121Z,48.08
2022-12-01T15:40:59.524Z,45.83
2022-12-01T15:42:34.768Z,49.75
2022-12-01T15:44:38.670Z,46.40
2022-12-01T15:46:41.422Z,47.63
2022-12-01T15:48:45.457Z,51.05
2022-12-01T15:50:59.852Z,44.53
2022-12-01T15:53:08.211Z,46.85
2022-12-01T15:55:24.588Z,46.08
2022-12-01T15:57:27.274Z,45.10
2022-12-01T15:59:34.650Z,46.58
2022-12-01T16:01:39.996Z,51.47
2022-12-01T16:03:55.649Z,49.05
2022-12-01T16:05:58.963Z,44.85
2022-12-01T16:08:15.275Z,46.15
2022-12-01T16:10:33.423Z,49.95
2022-12-01T16:12:37.088Z,49.42
2022-12-01T16:14:50.905Z,49.80
2022-12-01T16:16:55.241Z,48.05
2022-12-01T16:19:00.078Z,45.67
2022-12-01T16:21:04.582Z,54.40
2022-12-01T16:23:12.473Z,50.90
2022-12-01T16:25:21.810Z,51.05
2022-12-01T16:27:26.724Z,53.25
2022-12-01T16:29:31.295Z,48.72
2022-12-01T16:31:34.052Z,53.85
2022-12-01T16:33:39.831Z,51.97
2022-12-01T16:35:42.588Z,48.47
2022-12-01T16:37:45.177Z,48.78
2022-12-01T16:39:47.798Z,50.03
2022-12-01T16:41:50.422Z,49.97
2022-12-01T16:44:20.406Z,48.72
2022-12-01T16:46:15.702Z,50.80
2022-12-01T16:48:19.368Z,56.38
2022-12-01T16:50:23.893Z,53.10
2022-12-01T16:54:50.015Z,54.13
2022-12-01T16:56:52.738Z,49.22
2022-12-01T16:58:55.363Z,46.10
2022-12-01T17:00:58.625Z,49.88
2022-12-01T17:03:02.092Z,47.58
2022-12-01T17:05:05.070Z,50.08
2022-12-01T17:07:08.997Z,49.40
2022-12-01T17:09:11.638Z,53.15
2022-12-01T17:11:14.782Z,48.47
2022-12-01T17:13:17.966Z,47.83
2022-12-01T17:15:20.818Z,52.13
2022-12-01T17:17:23.403Z,48.70
2022-12-01T17:19:26.018Z,47.65
2022-12-01T17:21:28.972Z,54.78
2022-12-01T17:23:33.723Z,47.42
2022-12-01T17:25:36.405Z,48.13
2022-12-01T17:27:39.956Z,50.10
2022-12-01T17:29:46.086Z,47.10
2022-12-01T17:31:49.141Z,49.38
2022-12-01T17:33:51.975Z,51.78
2022-12-01T17:35:54.571Z,48.47
2022-12-01T17:37:57.163Z,51.85
2022-12-01T17:40:01.227Z,52.83
2022-12-01T17:42:03.895Z,47.85
2022-12-01T17:44:06.794Z,51.60
2022-12-01T17:46:12.093Z,50.30
2022-12-01T17:48:14.760Z,50.20
2022-12-01T17:50:18.023Z,49.20
2022-12-01T17:52:24.232Z,49.08
2022-12-01T17:54:30.776Z,53.00
2022-12-01T17:56:35.850Z,55.38
2022-12-01T17:58:39.097Z,53.13
2022-12-01T18:00:41.700Z,48.75
2022-12-01T18:02:44.374Z,49.90
2022-12-01T18:04:47.039Z,48.30
2022-12-01T18:06:54.007Z,47.97
2022-12-01T18:08:57.520Z,49.22
2022-12-01T18:11:02.076Z,48.90
2022-12-01T18:13:06.129Z,50.85
2022-12-01T18:15:09.927Z,55.35
2022-12-01T18:17:12.585Z,54.53
2022-12-01T18:19:15.470Z,53.58
2022-12-01T18:21:19.871Z,54.15
2022-12-01T18:23:22.504Z,43.83
2022-12-01T18:25:25.141Z,48.20
2022-12-01T18:27:27.748Z,53.33
2022-12-01T18:29:31.698Z,48.72
2022-12-01T18:31:35.209Z,50.88
2022-12-01T18:33:40.142Z,48.45
2022-12-01T18:35:44.456Z,52.40
2022-12-01T18:37:49.649Z,55.80
2022-12-01T18:39:52.470Z,50.20
2022-12-01T18:41:55.437Z,53.33
2022-12-01T18:43:58.106Z,47.53
2022-12-01T18:46:03.856Z,46.35
2022-12-01T18:48:07.993Z,57.65
2022-12-01T18:50:11.097Z,49.42
2022-12-01T18:52:13.707Z,60.70
2022-12-01T18:54:17.240Z,52.40
2022-12-01T18:56:19.972Z,55.53
2022-12-01T18:58:22.699Z,51.08
2022-12-01T19:00:25.902Z,54.22
2022-12-01T19:02:30.007Z,54.70
2022-12-01T19:04:32.686Z,52.90
2022-12-01T19:06:36.803Z,53.30
2022-12-01T19:08:39.812Z,51.10
2022-12-01T19:10:42.414Z,53.47
2022-12-01T19:12:44.999Z,53.47
2022-12-01T19:14:47.747Z,57.90
2022-12-01T19:16:50.626Z,56.25
2022-12-01T19:18:54.681Z,51.38
2022-12-01T19:20:57.285Z,62.53
2022-12-01T19:23:00.397Z,51.53
2022-12-01T19:25:02.964Z,58.50
2022-12-01T19:27:05.563Z,53.85
2022-12-01T19:29:08.974Z,47.92
2022-12-01T19:31:13.450Z,55.17
2022-12-01T19:33:16.369Z,52.85
2022-12-01T19:35:20.403Z,51.42
2022-12-01T19:37:22.988Z,52.92
2022-12-01T19:39:25.672Z,59.15
2022-12-01T19:41:28.750Z,54.50
2022-12-01T19:43:31.428Z,52.70
2022-12-01T19:45:35.449Z,64.03
2022-12-01T19:47:39.380Z,59.08
2022-12-01T19:49:43.319Z,53.45
2022-12-01T19:51:47.615Z,59.55
2022-12-01T19:53:50.368Z,58.08
2022-12-01T19:55:52.949Z,61.78
2022-12-01T19:57:55.510Z,65.30
2022-12-01T19:59:58.183Z,58.78
2022-12-01T20:02:00.828Z,60.83
2022-12-01T20:04:03.997Z,54.70
2022-12-01T20:06:09.609Z,60.53
2022-12-01T20:08:13.778Z,61.25
2022-12-01T20:10:20.036Z,59.38
2022-12-01T20:12:22.724Z,58.83
2022-12-01T20:14:25.489Z,56.35
2022-12-01T20:16:30.583Z,63.28
2022-12-01T20:18:34.241Z,57.45
2022-12-01T20:20:36.921Z,62.20
2022-12-01T20:22:39.842Z,58.53
2022-12-01T20:24:43.979Z,55.85
2022-12-01T20:26:48.983Z,60.42
2022-12-01T20:28:52.867Z,59.15
2022-12-01T20:30:55.630Z,59.90
2022-12-01T20:32:58.267Z,63.65
2022-12-01T20:35:01.840Z,57.50
2022-12-01T20:37:05.441Z,57.47
2022-12-01T20:39:09.106Z,57.63
2022-12-01T20:41:13.279Z,53.03
2022-12-01T20:43:16.064Z,51.83
2022-12-01T20:45:18.760Z,60.05
2022-12-01T20:47:21.561Z,57.20
2022-12-01T20:49:24.421Z,50.45
2022-12-01T20:51:27.139Z,59.15
2022-12-01T20:53:30.022Z,52.30
2022-12-01T20:55:32.665Z,55.50
2022-12-01T20:57:36.896Z,56.88
2022-12-01T20:59:39.621Z,52.97
2022-12-01T21:01:42.326Z,54.13
2022-12-01T21:03:46.939Z,54.85
2022-12-01T21:05:49.645Z,52.60
2022-12-01T21:07:52.336Z,52.25
2022-12-01T21:09:55.067Z,58.65
2022-12-01T21:12:17.594Z,52.65
2022-12-01T21:14:26.961Z,56.58
2022-12-01T21:16:33.434Z,55.15
2022-12-01T21:18:43.099Z,58.78
2022-12-01T21:20:47.541Z,56.13
2022-12-01T21:22:51.004Z,59.75
2022-12-01T21:25:01.126Z,58.13
2022-12-01T21:27:13.475Z,53.20
2022-12-01T21:29:22.732Z,55.42
2022-12-01T21:31:27.228Z,60.10
2022-12-01T21:33:33.340Z,62.05
2022-12-01T21:35:36.017Z,56.25
2022-12-01T21:37:38.659Z,59.13
2022-12-01T21:39:42.485Z,56.78
2022-12-01T21:41:45.175Z,59.00
2022-12-01T21:43:47.746Z,61.03
2022-12-01T21:45:54.565Z,56.13
2022-12-01T21:48:02.330Z,58.95
2022-12-01T21:50:17.177Z,60.90
2022-12-01T21:52:22.751Z,55.03
2022-12-01T21:54:25.349Z,63.35
2022-12-01T21:56:31.570Z,56.10
2022-12-01T21:58:37.331Z,58.50
2022-12-01T22:00:41.194Z,60.05
2022-12-01T22:02:50.519Z,56.08
2022-12-01T22:04:53.210Z,57.25
2022-12-01T22:06:57.997Z,59.22
2022-12-01T22:09:03.099Z,59.35
2022-12-01T22:11:12.182Z,57.50
2022-12-01T22:13:14.775Z,58.55
2022-12-01T22:15:37.341Z,55.67
2022-12-01T22:17:40.064Z,52.25
2022-12-01T22:19:47.406Z,59.75
2022-12-01T22:21:50.994Z,55.40
2022-12-01T22:24:00.825Z,51.80
2022-12-01T22:26:12.953Z,50.38
2022-12-01T22:28:20.534Z,57.95
2022-12-01T22:30:24.784Z,56.20
2022-12-01T22:32:53.225Z,55.33
2022-12-01T22:34:59.881Z,54.40
2022-12-01T22:37:02.519Z,52.25
2022-12-01T22:39:23.587Z,56.90
2022-12-01T22:41:28.595Z,53.85
2022-12-01T22:43:45.761Z,55.05
2022-12-01T22:45:49.959Z,51.78
2022-12-01T22:47:55.934Z,57.08
2022-12-01T22:50:00.180Z,50.20
2022-12-01T22:52:06.254Z,57.05
2022-12-01T22:54:38.583Z,53.95
2022-12-01T22:56:44.246Z,52.80
2022-12-01T22:58:47.585Z,48.30
2022-12-01T23:00:50.207Z,58.08
2022-12-01T23:02:56.641Z,52.08
2022-12-01T23:05:03.021Z,49.70
2022-12-01T23:07:11.257Z,55.22
2022-12-01T23:09:14.153Z,63.28
2022-12-01T23:11:16.763Z,52.58
2022-12-01T23:13:22.058Z,49.78
2022-12-01T23:15:31.272Z,50.50
2022-12-01T23:17:38.860Z,58.95
2022-12-01T23:19:41.464Z,60.63
2022-12-01T23:21:45.417Z,50.78
2022-12-01T23:23:48.001Z,53.22
2022-12-01T23:25:51.387Z,53.67
2022-12-01T23:27:55.461Z,52.38
2022-12-01T23:29:58.188Z,50.72
2022-12-01T23:32:00.829Z,52.20
2022-12-01T23:34:03.395Z,58.00
2022-12-01T23:36:12.777Z,57.85
2022-12-01T23:38:20.582Z,60.67
2022-12-01T23:40:30.490Z,54.00
2022-12-01T23:42:33.385Z,51.97
2022-12-01T23:44:40.610Z,50.55
2022-12-01T23:46:43.548Z,57.65
2022-12-01T23:48:49.411Z,55.85
2022-12-01T23:50:54.156Z,52.00
2022-12-01T23:52:57.383Z,58.38
2022-12-01T23:55:01.553Z,60.03
2022-12-01T23:57:10.859Z,55.03
2022-12-01T23:59:15.114Z,56.28
